Mr. Cass — WDB5593 — position and weather

sailwx.info

Track history (hours):
 
Tides and Currents Weather Stations Pressure Air Temp Water Temp Dewpoint Dewpoint Depression Visibility Wind Speed Wind Dir Waves Ship Positions

Mr. Cass

Owner: Cass Marine Towing LLC, Marrero, LA. More information available from US FCC via Universal Licensing System and Coast Guard Vessel Documentation Center.

Last reported at 2016-May-27 03:33 UTC. Time now 2016-May-27 04:30 UTC.
Position N 29°54' W 090°07'.

Length 17 m; draft 3.5 m.

Type: Towing. MMSI: 366911310.

Date/timePositionNaut miles runAvg speedWind from/ knotsBaromVisibWave heightAir tempDewpointWater temp
2016-May-27 03:33N 29°54' W 090°07'0 0.0
2016-May-27 02:33N 29°54' W 090°07'0 0.0
2016-May-27 01:33N 29°54' W 090°07'0 0.0
2016-May-27 00:33N 29°54' W 090°07'0 0.0
2016-May-26 23:33N 29°54' W 090°07'0 0.0
2016-May-26 22:33N 29°54' W 090°07'0 0.0
2016-May-26 21:33N 29°54' W 090°07'0 0.0
2016-May-26 20:33N 29°54' W 090°07'0 0.0
2016-May-26 19:33N 29°54' W 090°07'0 0.0
2016-May-26 18:33N 29°54' W 090°07'2 2.1
2016-May-26 17:33N 29°55' W 090°05'2 2.0
2016-May-26 16:33N 29°54' W 090°07'0 0.0
2016-May-26 15:33N 29°54' W 090°07'0 0.0
2016-May-26 14:33N 29°54' W 090°07'0 0.0
2016-May-26 13:33N 29°54' W 090°07'0 0.0
2016-May-26 12:33N 29°54' W 090°07'0 0.0
2016-May-26 11:33N 29°54' W 090°07'0 0.0
2016-May-26 10:05N 29°54' W 090°07'0 0.0
2016-May-26 09:33N 29°54' W 090°07'0 0.0
2016-May-26 08:28N 29°54' W 090°07'0 0.0
2016-May-26 07:33N 29°54' W 090°07'0 0.0
2016-May-26 06:24N 29°54' W 090°07'0 0.0
2016-May-26 05:19N 29°54' W 090°07'0 0.0
2016-May-26 04:22N 29°54' W 090°07'0 0.0
2016-May-26 03:27N 29°54' W 090°07'0 0.0
2016-May-26 02:27N 29°54' W 090°07'0 0.0
2016-May-26 01:30N 29°54' W 090°07'0 0.0
2016-May-26 00:33N 29°54' W 090°07'0 0.0
2016-May-25 23:32N 29°54' W 090°07'0 0.0
2016-May-25 22:33N 29°54' W 090°07'2 1.7
2016-May-25 21:33N 29°55' W 090°05'0 0.3
2016-May-25 20:33N 29°55' W 090°06'2 1.6
2016-May-25 19:33N 29°54' W 090°07'0 0.0
2016-May-25 18:33N 29°54' W 090°07'0 0.0
2016-May-25 17:33N 29°54' W 090°07'0 0.0
2016-May-25 16:33N 29°54' W 090°07'0 0.0
2016-May-25 15:33N 29°54' W 090°07'0 0.0
2016-May-25 14:33N 29°54' W 090°07'0 0.0
2016-May-25 13:33N 29°54' W 090°07'0 0.0
2016-May-25 12:33N 29°54' W 090°07'0 0.1
2016-May-25 11:33N 29°54' W 090°07'0 0.0
2016-May-25 10:33N 29°54' W 090°07'0 0.0
2016-May-25 09:33N 29°54' W 090°07'0 0.0
2016-May-25 08:33N 29°54' W 090°07'0 0.0
2016-May-25 07:33N 29°54' W 090°07'0 0.0
2016-May-25 06:33N 29°54' W 090°07'0 0.0
2016-May-25 05:33N 29°54' W 090°07'0 0.0
2016-May-25 04:33N 29°54' W 090°07'0 0.0
2016-May-25 03:33N 29°54' W 090°07'0 0.0
2016-May-25 02:33N 29°54' W 090°07'0 0.0
2016-May-25 01:33N 29°54' W 090°07'0 0.0
2016-May-25 00:33N 29°54' W 090°07'0 0.0
2016-May-24 23:33N 29°54' W 090°07'0 0.0
2016-May-24 22:33N 29°54' W 090°07'0 0.0
2016-May-24 21:33N 29°54' W 090°07'1 0.7
2016-May-24 20:33N 29°54' W 090°06'3 2.7
2016-May-24 19:33N 29°55' W 090°04'0 0.1
2016-May-24 18:33N 29°56' W 090°04'2 2.1
2016-May-24 17:33N 29°55' W 090°06'1 1.4
2016-May-24 16:33N 29°54' W 090°07'0 0.0
2016-May-24 15:33N 29°54' W 090°07'0 0.0
2016-May-24 14:34N 29°54' W 090°07'0 0.0
2016-May-24 13:33N 29°54' W 090°07'0 0.0
2016-May-24 12:34N 29°54' W 090°07'0 0.0
2016-May-24 11:34N 29°54' W 090°07'0 0.0
2016-May-24 10:33N 29°54' W 090°07'0 0.0
2016-May-24 09:33N 29°54' W 090°07'0 0.0
2016-May-24 08:33N 29°54' W 090°07'0 0.0
2016-May-24 07:33N 29°54' W 090°07'0 0.0
2016-May-24 06:34N 29°54' W 090°07'0 0.0
2016-May-24 05:34N 29°54' W 090°07'0 0.0
2016-May-24 04:33N 29°54' W 090°07'0 0.0
2016-May-24 03:33N 29°54' W 090°07'0 0.0
2016-May-24 02:33N 29°54' W 090°07'0 0.0
2016-May-24 01:34N 29°54' W 090°07'0 0.0
2016-May-24 00:34N 29°54' W 090°07'0 0.0
2016-May-23 23:33N 29°54' W 090°07'0 0.0
2016-May-23 22:25N 29°54' W 090°07'0 0.0
2016-May-23 21:34N 29°54' W 090°07'0 0.0
2016-May-23 20:34N 29°54' W 090°07'0 0.0
2016-May-23 19:34N 29°54' W 090°07'0 0.0
2016-May-23 18:32N 29°54' W 090°07'0 0.1
2016-May-23 14:18N 29°54' W 090°07'0 0.1
2016-May-23 13:34N 29°54' W 090°07'0 0.1
2016-May-23 12:31N 29°54' W 090°07'1 1.3
2016-May-23 11:34N 29°55' W 090°06'2 1.6
2016-May-23 10:33N 29°54' W 090°07'0 0.0
2016-May-23 09:34N 29°54' W 090°07'0 0.0
2016-May-23 08:34N 29°54' W 090°07'0 0.0
2016-May-23 07:34N 29°54' W 090°07'0 0.0
2016-May-23 06:34N 29°54' W 090°07'0 0.0
2016-May-23 05:33N 29°54' W 090°07'0 0.0
2016-May-22 09:34N 29°54' W 090°07'0 0.0
2016-May-22 08:34N 29°54' W 090°07'0 0.0
2016-May-22 07:34N 29°54' W 090°07'0 0.0
2016-May-22 06:34N 29°54' W 090°07'0 0.0
2016-May-22 05:34N 29°54' W 090°07'0 0.0
2016-May-21 23:23N 29°54' W 090°07'0 0.0
2016-May-21 13:24N 29°54' W 090°07'0 0.0
2016-May-21 12:34N 29°54' W 090°07'0 0.0
2016-May-21 11:34N 29°54' W 090°07'0 0.0
2016-May-21 10:34N 29°54' W 090°07'0 0.0
2016-May-21 09:34N 29°54' W 090°07'0 0.0
2016-May-21 08:33N 29°54' W 090°07'0 0.0
2016-May-21 07:34N 29°54' W 090°07'0 0.0
2016-May-21 06:33N 29°54' W 090°07'0 0.0
2016-May-21 05:33N 29°54' W 090°07'0 0.0
2016-May-21 04:33N 29°54' W 090°07'0 0.0
2016-May-21 03:34N 29°54' W 090°07'0 0.0
2016-May-21 02:33N 29°54' W 090°07'0 0.0
2016-May-21 01:33N 29°54' W 090°07'0 0.0
2016-May-21 00:34N 29°54' W 090°07'0 0.0
2016-May-20 23:34N 29°54' W 090°07'0 0.0
2016-May-20 22:33N 29°54' W 090°07'0 0.0
2016-May-20 21:34N 29°54' W 090°07'0 0.0
2016-May-20 20:33N 29°54' W 090°07'0 0.0
2016-May-20 19:28N 29°54' W 090°07'0 0.0
2016-May-20 18:34N 29°54' W 090°07'0 0.0
2016-May-20 17:34N 29°54' W 090°07'0 0.0
2016-May-20 15:31N 29°54' W 090°07'0 0.0
2016-May-20 14:34N 29°54' W 090°07'0 0.0
2016-May-20 13:34N 29°54' W 090°07'0 0.0
2016-May-20 12:33N 29°54' W 090°07'0 0.0
2016-May-20 11:34N 29°54' W 090°07'0 0.0
2016-May-20 10:34N 29°54' W 090°07'0 0.0
2016-May-20 09:34N 29°54' W 090°07'0 0.0
2016-May-20 08:34N 29°54' W 090°07'0 0.0
2016-May-20 07:33N 29°54' W 090°07'0 0.0
2016-May-20 06:34N 29°54' W 090°07'0 0.0
2016-May-20 05:33N 29°54' W 090°07'0 0.0
2016-May-20 03:33N 29°54' W 090°07'0 0.0
2016-May-20 02:34N 29°54' W 090°07'0 0.0
2016-May-20 01:33N 29°54' W 090°07'0 0.0
2016-May-20 00:34N 29°54' W 090°07'0 0.0
2016-May-19 23:34N 29°54' W 090°07'0 0.0
2016-May-19 22:34N 29°54' W 090°07'0 0.0
2016-May-19 21:33N 29°54' W 090°07'2 1.7
2016-May-19 20:34N 29°55' W 090°05'0 0.0
2016-May-19 19:34N 29°55' W 090°05'0 0.0
2016-May-19 18:34N 29°55' W 090°05'0 0.0
2016-May-19 17:34N 29°55' W 090°05'0 0.0
2016-May-19 16:34N 29°55' W 090°05'0 0.0
2016-May-19 15:34N 29°55' W 090°05'0 0.0
2016-May-19 14:34N 29°55' W 090°05'0 0.0
2016-May-19 13:34N 29°55' W 090°05'0 0.0
2016-May-19 12:33N 29°55' W 090°05'0 0.0
2016-May-19 11:34N 29°55' W 090°05'0 0.0
2016-May-19 10:34N 29°55' W 090°05'0 0.0
2016-May-19 09:33N 29°55' W 090°05'0 0.0
2016-May-19 08:34N 29°55' W 090°05'0 0.0
2016-May-19 07:34N 29°55' W 090°05'0 0.0
2016-May-19 06:34N 29°55' W 090°05'0 0.0
2016-May-19 05:34N 29°55' W 090°05'0 0.0
2016-May-19 04:33N 29°55' W 090°05'0 0.0
2016-May-19 03:34N 29°55' W 090°05'0 0.0
2016-May-19 02:33N 29°55' W 090°05'0 0.0
2016-May-19 01:34N 29°55' W 090°05'0 0.0
2016-May-19 00:34N 29°55' W 090°05'0 0.0
2016-May-18 23:34N 29°55' W 090°05'0 0.0
2016-May-18 22:34N 29°55' W 090°05'0 0.0
2016-May-18 21:34N 29°55' W 090°05'0 0.0
2016-May-18 20:34N 29°55' W 090°05'0 0.0
2016-May-18 19:34N 29°55' W 090°05'0 0.0
2016-May-18 18:34N 29°55' W 090°05'0 0.0
2016-May-18 17:34N 29°55' W 090°05'0 0.0
2016-May-18 16:33N 29°55' W 090°05'0 0.5
2016-May-18 15:34N 29°55' W 090°06'1 1.3
2016-May-18 14:34N 29°54' W 090°07'0 0.0
2016-May-18 13:31N 29°54' W 090°07'0 0.0
2016-May-18 12:34N 29°54' W 090°07'0 0.0
2016-May-18 11:34N 29°54' W 090°07'2 1.5
2016-May-18 10:33N 29°55' W 090°06'0 0.2
2016-May-18 09:34N 29°55' W 090°06'0 0.0
2016-May-18 08:34N 29°55' W 090°06'0 0.0
2016-May-18 07:34N 29°55' W 090°06'0 0.0
2016-May-18 06:33N 29°55' W 090°06'0 0.0
2016-May-18 05:33N 29°55' W 090°06'0 0.0
2016-May-18 04:34N 29°55' W 090°06'0 0.0
2016-May-18 03:33N 29°55' W 090°06'0 0.0
2016-May-18 02:34N 29°55' W 090°06'0 0.0
2016-May-18 01:34N 29°55' W 090°06'0 0.0
2016-May-18 00:33N 29°55' W 090°06'0 0.0
2016-May-17 23:34N 29°55' W 090°06'0 0.0
2016-May-17 22:33N 29°55' W 090°06'0 0.0
2016-May-17 21:33N 29°55' W 090°06'0 0.0
2016-May-17 20:34N 29°55' W 090°06'0 0.0
2016-May-17 19:34N 29°55' W 090°06'0 0.0
2016-May-17 18:34N 29°55' W 090°06'2 1.6
2016-May-17 17:34N 29°54' W 090°07'0 0.1
2016-May-17 16:34N 29°54' W 090°07'0 0.0
2016-May-17 15:33N 29°54' W 090°07'0 0.0
2016-May-17 14:33N 29°54' W 090°07'0 0.0
2016-May-17 13:34N 29°54' W 090°07'0 0.0
2016-May-17 12:34N 29°54' W 090°07'0 0.0
2016-May-17 11:33N 29°54' W 090°07'0 0.0
2016-May-17 10:34N 29°54' W 090°07'0 0.0
2016-May-17 09:33N 29°54' W 090°07'0 0.0
2016-May-17 08:34N 29°54' W 090°07'0 0.0
2016-May-17 07:34N 29°54' W 090°07'0 0.0
2016-May-17 06:33N 29°54' W 090°07'0 0.0
2016-May-17 05:34N 29°54' W 090°07'0 0.0
2016-May-17 04:33N 29°54' W 090°07'0 0.0
2016-May-17 03:34N 29°54' W 090°07'  
Track history (hours):
 
Tides and Currents Weather Stations Pressure Air Temp Water Temp Dewpoint Dewpoint Depression Visibility Wind Speed Wind Dir Waves Ship Positions

Mr. Cass

Owner: Cass Marine Towing LLC, Marrero, LA. More information available from US FCC via Universal Licensing System and Coast Guard Vessel Documentation Center.

Last reported at 2016-May-27 03:33 UTC. Time now 2016-May-27 04:30 UTC.
Position N 29°54' W 090°07'.

Length 17 m; draft 3.5 m.

Type: Towing. MMSI: 366911310.

Date/timePositionNaut miles runAvg speedWind from/ knotsBaromVisibWave heightAir tempDewpointWater temp
2016-May-27 03:33N 29°54' W 090°07'0 0.0
2016-May-27 02:33N 29°54' W 090°07'0 0.0
2016-May-27 01:33N 29°54' W 090°07'0 0.0
2016-May-27 00:33N 29°54' W 090°07'0 0.0
2016-May-26 23:33N 29°54' W 090°07'0 0.0
2016-May-26 22:33N 29°54' W 090°07'0 0.0
2016-May-26 21:33N 29°54' W 090°07'0 0.0
2016-May-26 20:33N 29°54' W 090°07'0 0.0
2016-May-26 19:33N 29°54' W 090°07'0 0.0
2016-May-26 18:33N 29°54' W 090°07'2 2.1
2016-May-26 17:33N 29°55' W 090°05'2 2.0
2016-May-26 16:33N 29°54' W 090°07'0 0.0
2016-May-26 15:33N 29°54' W 090°07'0 0.0
2016-May-26 14:33N 29°54' W 090°07'0 0.0
2016-May-26 13:33N 29°54' W 090°07'0 0.0
2016-May-26 12:33N 29°54' W 090°07'0 0.0
2016-May-26 11:33N 29°54' W 090°07'0 0.0
2016-May-26 10:05N 29°54' W 090°07'0 0.0
2016-May-26 09:33N 29°54' W 090°07'0 0.0
2016-May-26 08:28N 29°54' W 090°07'0 0.0
2016-May-26 07:33N 29°54' W 090°07'0 0.0
2016-May-26 06:24N 29°54' W 090°07'0 0.0
2016-May-26 05:19N 29°54' W 090°07'0 0.0
2016-May-26 04:22N 29°54' W 090°07'0 0.0
2016-May-26 03:27N 29°54' W 090°07'0 0.0
2016-May-26 02:27N 29°54' W 090°07'0 0.0
2016-May-26 01:30N 29°54' W 090°07'0 0.0
2016-May-26 00:33N 29°54' W 090°07'0 0.0
2016-May-25 23:32N 29°54' W 090°07'0 0.0
2016-May-25 22:33N 29°54' W 090°07'2 1.7
2016-May-25 21:33N 29°55' W 090°05'0 0.3
2016-May-25 20:33N 29°55' W 090°06'2 1.6
2016-May-25 19:33N 29°54' W 090°07'0 0.0
2016-May-25 18:33N 29°54' W 090°07'0 0.0
2016-May-25 17:33N 29°54' W 090°07'0 0.0
2016-May-25 16:33N 29°54' W 090°07'0 0.0
2016-May-25 15:33N 29°54' W 090°07'0 0.0
2016-May-25 14:33N 29°54' W 090°07'0 0.0
2016-May-25 13:33N 29°54' W 090°07'0 0.0
2016-May-25 12:33N 29°54' W 090°07'0 0.1
2016-May-25 11:33N 29°54' W 090°07'0 0.0
2016-May-25 10:33N 29°54' W 090°07'0 0.0
2016-May-25 09:33N 29°54' W 090°07'0 0.0
2016-May-25 08:33N 29°54' W 090°07'0 0.0
2016-May-25 07:33N 29°54' W 090°07'0 0.0
2016-May-25 06:33N 29°54' W 090°07'0 0.0
2016-May-25 05:33N 29°54' W 090°07'0 0.0
2016-May-25 04:33N 29°54' W 090°07'0 0.0
2016-May-25 03:33N 29°54' W 090°07'0 0.0
2016-May-25 02:33N 29°54' W 090°07'0 0.0
2016-May-25 01:33N 29°54' W 090°07'0 0.0
2016-May-25 00:33N 29°54' W 090°07'0 0.0
2016-May-24 23:33N 29°54' W 090°07'0 0.0
2016-May-24 22:33N 29°54' W 090°07'0 0.0
2016-May-24 21:33N 29°54' W 090°07'1 0.7
2016-May-24 20:33N 29°54' W 090°06'3 2.7
2016-May-24 19:33N 29°55' W 090°04'0 0.1
2016-May-24 18:33N 29°56' W 090°04'2 2.1
2016-May-24 17:33N 29°55' W 090°06'1 1.4
2016-May-24 16:33N 29°54' W 090°07'0 0.0
2016-May-24 15:33N 29°54' W 090°07'0 0.0
2016-May-24 14:34N 29°54' W 090°07'0 0.0
2016-May-24 13:33N 29°54' W 090°07'0 0.0
2016-May-24 12:34N 29°54' W 090°07'0 0.0
2016-May-24 11:34N 29°54' W 090°07'0 0.0
2016-May-24 10:33N 29°54' W 090°07'0 0.0
2016-May-24 09:33N 29°54' W 090°07'0 0.0
2016-May-24 08:33N 29°54' W 090°07'0 0.0
2016-May-24 07:33N 29°54' W 090°07'0 0.0
2016-May-24 06:34N 29°54' W 090°07'0 0.0
2016-May-24 05:34N 29°54' W 090°07'0 0.0
2016-May-24 04:33N 29°54' W 090°07'0 0.0
2016-May-24 03:33N 29°54' W 090°07'0 0.0
2016-May-24 02:33N 29°54' W 090°07'0 0.0
2016-May-24 01:34N 29°54' W 090°07'0 0.0
2016-May-24 00:34N 29°54' W 090°07'0 0.0
2016-May-23 23:33N 29°54' W 090°07'0 0.0
2016-May-23 22:25N 29°54' W 090°07'0 0.0
2016-May-23 21:34N 29°54' W 090°07'0 0.0
2016-May-23 20:34N 29°54' W 090°07'0 0.0
2016-May-23 19:34N 29°54' W 090°07'0 0.0
2016-May-23 18:32N 29°54' W 090°07'0 0.1
2016-May-23 14:18N 29°54' W 090°07'0 0.1
2016-May-23 13:34N 29°54' W 090°07'0 0.1
2016-May-23 12:31N 29°54' W 090°07'1 1.3
2016-May-23 11:34N 29°55' W 090°06'2 1.6
2016-May-23 10:33N 29°54' W 090°07'0 0.0
2016-May-23 09:34N 29°54' W 090°07'0 0.0
2016-May-23 08:34N 29°54' W 090°07'0 0.0
2016-May-23 07:34N 29°54' W 090°07'0 0.0
2016-May-23 06:34N 29°54' W 090°07'0 0.0
2016-May-23 05:33N 29°54' W 090°07'0 0.0
2016-May-22 09:34N 29°54' W 090°07'0 0.0
2016-May-22 08:34N 29°54' W 090°07'0 0.0
2016-May-22 07:34N 29°54' W 090°07'0 0.0
2016-May-22 06:34N 29°54' W 090°07'0 0.0
2016-May-22 05:34N 29°54' W 090°07'0 0.0
2016-May-21 23:23N 29°54' W 090°07'0 0.0
2016-May-21 13:24N 29°54' W 090°07'0 0.0
2016-May-21 12:34N 29°54' W 090°07'0 0.0
2016-May-21 11:34N 29°54' W 090°07'0 0.0
2016-May-21 10:34N 29°54' W 090°07'0 0.0
2016-May-21 09:34N 29°54' W 090°07'0 0.0
2016-May-21 08:33N 29°54' W 090°07'0 0.0
2016-May-21 07:34N 29°54' W 090°07'0 0.0
2016-May-21 06:33N 29°54' W 090°07'0 0.0
2016-May-21 05:33N 29°54' W 090°07'0 0.0
2016-May-21 04:33N 29°54' W 090°07'0 0.0
2016-May-21 03:34N 29°54' W 090°07'0 0.0
2016-May-21 02:33N 29°54' W 090°07'0 0.0
2016-May-21 01:33N 29°54' W 090°07'0 0.0
2016-May-21 00:34N 29°54' W 090°07'0 0.0
2016-May-20 23:34N 29°54' W 090°07'0 0.0
2016-May-20 22:33N 29°54' W 090°07'0 0.0
2016-May-20 21:34N 29°54' W 090°07'0 0.0
2016-May-20 20:33N 29°54' W 090°07'0 0.0
2016-May-20 19:28N 29°54' W 090°07'0 0.0
2016-May-20 18:34N 29°54' W 090°07'0 0.0
2016-May-20 17:34N 29°54' W 090°07'0 0.0
2016-May-20 15:31N 29°54' W 090°07'0 0.0
2016-May-20 14:34N 29°54' W 090°07'0 0.0
2016-May-20 13:34N 29°54' W 090°07'0 0.0
2016-May-20 12:33N 29°54' W 090°07'0 0.0
2016-May-20 11:34N 29°54' W 090°07'0 0.0
2016-May-20 10:34N 29°54' W 090°07'0 0.0
2016-May-20 09:34N 29°54' W 090°07'0 0.0
2016-May-20 08:34N 29°54' W 090°07'0 0.0
2016-May-20 07:33N 29°54' W 090°07'0 0.0
2016-May-20 06:34N 29°54' W 090°07'0 0.0
2016-May-20 05:33N 29°54' W 090°07'0 0.0
2016-May-20 03:33N 29°54' W 090°07'0 0.0
2016-May-20 02:34N 29°54' W 090°07'0 0.0
2016-May-20 01:33N 29°54' W 090°07'0 0.0
2016-May-20 00:34N 29°54' W 090°07'0 0.0
2016-May-19 23:34N 29°54' W 090°07'0 0.0
2016-May-19 22:34N 29°54' W 090°07'0 0.0
2016-May-19 21:33N 29°54' W 090°07'2 1.7
2016-May-19 20:34N 29°55' W 090°05'0 0.0
2016-May-19 19:34N 29°55' W 090°05'0 0.0
2016-May-19 18:34N 29°55' W 090°05'0 0.0
2016-May-19 17:34N 29°55' W 090°05'0 0.0
2016-May-19 16:34N 29°55' W 090°05'0 0.0
2016-May-19 15:34N 29°55' W 090°05'0 0.0
2016-May-19 14:34N 29°55' W 090°05'0 0.0
2016-May-19 13:34N 29°55' W 090°05'0 0.0
2016-May-19 12:33N 29°55' W 090°05'0 0.0
2016-May-19 11:34N 29°55' W 090°05'0 0.0
2016-May-19 10:34N 29°55' W 090°05'0 0.0
2016-May-19 09:33N 29°55' W 090°05'0 0.0
2016-May-19 08:34N 29°55' W 090°05'0 0.0
2016-May-19 07:34N 29°55' W 090°05'0 0.0
2016-May-19 06:34N 29°55' W 090°05'0 0.0
2016-May-19 05:34N 29°55' W 090°05'0 0.0
2016-May-19 04:33N 29°55' W 090°05'0 0.0
2016-May-19 03:34N 29°55' W 090°05'0 0.0
2016-May-19 02:33N 29°55' W 090°05'0 0.0
2016-May-19 01:34N 29°55' W 090°05'0 0.0
2016-May-19 00:34N 29°55' W 090°05'0 0.0
2016-May-18 23:34N 29°55' W 090°05'0 0.0
2016-May-18 22:34N 29°55' W 090°05'0 0.0
2016-May-18 21:34N 29°55' W 090°05'0 0.0
2016-May-18 20:34N 29°55' W 090°05'0 0.0
2016-May-18 19:34N 29°55' W 090°05'0 0.0
2016-May-18 18:34N 29°55' W 090°05'0 0.0
2016-May-18 17:34N 29°55' W 090°05'0 0.0
2016-May-18 16:33N 29°55' W 090°05'0 0.5
2016-May-18 15:34N 29°55' W 090°06'1 1.3
2016-May-18 14:34N 29°54' W 090°07'0 0.0
2016-May-18 13:31N 29°54' W 090°07'0 0.0
2016-May-18 12:34N 29°54' W 090°07'0 0.0
2016-May-18 11:34N 29°54' W 090°07'2 1.5
2016-May-18 10:33N 29°55' W 090°06'0 0.2
2016-May-18 09:34N 29°55' W 090°06'0 0.0
2016-May-18 08:34N 29°55' W 090°06'0 0.0
2016-May-18 07:34N 29°55' W 090°06'0 0.0
2016-May-18 06:33N 29°55' W 090°06'0 0.0
2016-May-18 05:33N 29°55' W 090°06'0 0.0
2016-May-18 04:34N 29°55' W 090°06'0 0.0
2016-May-18 03:33N 29°55' W 090°06'0 0.0
2016-May-18 02:34N 29°55' W 090°06'0 0.0
2016-May-18 01:34N 29°55' W 090°06'0 0.0
2016-May-18 00:33N 29°55' W 090°06'0 0.0
2016-May-17 23:34N 29°55' W 090°06'0 0.0
2016-May-17 22:33N 29°55' W 090°06'0 0.0
2016-May-17 21:33N 29°55' W 090°06'0 0.0
2016-May-17 20:34N 29°55' W 090°06'0 0.0
2016-May-17 19:34N 29°55' W 090°06'0 0.0
2016-May-17 18:34N 29°55' W 090°06'2 1.6
2016-May-17 17:34N 29°54' W 090°07'0 0.1
2016-May-17 16:34N 29°54' W 090°07'0 0.0
2016-May-17 15:33N 29°54' W 090°07'0 0.0
2016-May-17 14:33N 29°54' W 090°07'0 0.0
2016-May-17 13:34N 29°54' W 090°07'0 0.0
2016-May-17 12:34N 29°54' W 090°07'0 0.0
2016-May-17 11:33N 29°54' W 090°07'0 0.0
2016-May-17 10:34N 29°54' W 090°07'0 0.0
2016-May-17 09:33N 29°54' W 090°07'0 0.0
2016-May-17 08:34N 29°54' W 090°07'0 0.0
2016-May-17 07:34N 29°54' W 090°07'0 0.0
2016-May-17 06:33N 29°54' W 090°07'0 0.0
2016-May-17 05:34N 29°54' W 090°07'0 0.0
2016-May-17 04:33N 29°54' W 090°07'0 0.0
2016-May-17 03:34N 29°54' W 090°07'  

Dump ship's entire track history